createdAt,value
2018-03-17T00:02:20.137Z,7.70
2018-03-17T00:04:47.678Z,6.87
2018-03-17T00:07:15.197Z,7.23
2018-03-17T00:09:42.737Z,8.00
2018-03-17T00:12:11.025Z,7.40
2018-03-17T00:14:38.561Z,6.73
2018-03-17T00:17:06.852Z,6.77
2018-03-17T00:19:34.397Z,6.87
2018-03-17T00:22:02.680Z,6.67
2018-03-17T00:24:30.997Z,7.40
2018-03-17T00:26:58.513Z,7.13
2018-03-17T00:29:27.574Z,7.27
2018-03-17T00:31:55.093Z,6.43
2018-03-17T00:34:22.628Z,7.27
2018-03-17T00:36:50.921Z,6.60
2018-03-17T00:39:18.477Z,6.53
2018-03-17T00:41:46.012Z,7.03
2018-03-17T00:44:14.312Z,6.43
2018-03-17T00:46:41.841Z,6.60
2018-03-17T00:49:10.140Z,7.33
2018-03-17T00:51:37.673Z,6.93
2018-03-17T00:54:05.985Z,6.57
2018-03-17T00:56:33.514Z,6.73
2018-03-17T00:59:01.820Z,6.60
2018-03-17T01:01:29.344Z,6.57
2018-03-17T01:03:57.648Z,6.50
2018-03-17T01:06:25.173Z,5.80
2018-03-17T01:08:52.705Z,5.23
2018-03-17T01:11:20.229Z,6.47
2018-03-17T01:13:47.764Z,6.27
2018-03-17T01:16:15.276Z,6.47
2018-03-17T01:18:42.813Z,6.17
2018-03-17T01:21:10.374Z,6.33
2018-03-17T01:23:37.896Z,6.60
2018-03-17T01:26:06.205Z,5.93
2018-03-17T01:28:33.772Z,5.87
2018-03-17T01:31:01.322Z,6.43
2018-03-17T01:33:28.840Z,5.53
2018-03-17T01:35:57.142Z,6.27
2018-03-17T01:38:24.656Z,6.60
2018-03-17T01:40:52.198Z,6.73
2018-03-17T01:43:19.721Z,6.20
2018-03-17T01:45:47.264Z,5.83
2018-03-17T01:48:14.780Z,7.10
2018-03-17T01:50:42.323Z,5.63
2018-03-17T01:53:09.840Z,8.03
2018-03-17T01:55:37.392Z,5.97
2018-03-17T01:58:05.695Z,6.43
2018-03-17T02:00:33.241Z,5.90
2018-03-17T02:03:00.769Z,7.40
2018-03-17T02:05:28.304Z,5.33
2018-03-17T02:07:55.831Z,5.83
2018-03-17T02:10:23.368Z,5.93
2018-03-17T02:12:50.892Z,6.30
2018-03-17T02:15:18.425Z,6.00
2018-03-17T02:17:45.932Z,5.53
2018-03-17T02:20:14.240Z,5.47
2018-03-17T02:22:41.756Z,5.93
2018-03-17T02:25:10.060Z,6.37
2018-03-17T02:27:37.593Z,6.97
2018-03-17T02:30:05.894Z,7.30
2018-03-17T02:32:33.476Z,6.90
2018-03-17T02:35:01.030Z,6.87
2018-03-17T02:37:28.567Z,7.10
2018-03-17T02:39:56.120Z,7.73
2018-03-17T02:42:23.645Z,6.63
2018-03-17T02:44:51.178Z,5.70
2018-03-17T02:47:18.701Z,6.53
2018-03-17T02:49:46.249Z,6.67
2018-03-17T02:52:13.787Z,6.93
2018-03-17T02:54:41.325Z,7.67
2018-03-17T02:57:08.849Z,9.07
2018-03-17T02:59:36.388Z,8.97
2018-03-17T03:02:03.912Z,7.57
2018-03-17T03:04:31.449Z,6.77
2018-03-17T03:06:58.977Z,8.87
2018-03-17T03:09:26.574Z,8.23
2018-03-17T03:11:54.075Z,7.00
2018-03-17T03:14:21.611Z,6.70
2018-03-17T03:16:49.148Z,6.50
2018-03-17T03:19:16.672Z,6.57
2018-03-17T03:21:44.226Z,6.00
2018-03-17T03:24:11.749Z,6.63
2018-03-17T03:26:40.061Z,6.30
2018-03-17T03:29:07.580Z,6.43
2018-03-17T03:31:35.893Z,7.03
2018-03-17T03:34:03.421Z,6.13
2018-03-17T03:36:31.733Z,5.93
2018-03-17T03:38:59.260Z,6.07
2018-03-17T03:41:27.561Z,5.67
2018-03-17T03:43:55.080Z,6.07
2018-03-17T03:46:22.612Z,7.17
2018-03-17T03:48:50.133Z,6.20
2018-03-17T03:51:17.676Z,7.10
2018-03-17T03:53:45.189Z,7.47
2018-03-17T03:56:12.726Z,8.03
2018-03-17T03:58:40.249Z,7.23
2018-03-17T04:01:07.804Z,8.03
2018-03-17T04:03:35.328Z,8.00
2018-03-17T04:06:02.870Z,9.53
2018-03-17T04:08:30.392Z,10.90
2018-03-17T04:10:58.704Z,10.93
2018-03-17T04:13:26.225Z,12.60
2018-03-17T04:15:53.764Z,12.03
2018-03-17T04:18:21.299Z,10.77
2018-03-17T04:20:48.844Z,12.43
2018-03-17T04:23:16.391Z,14.73
2018-03-17T04:25:43.929Z,13.43
2018-03-17T04:28:12.224Z,14.83
2018-03-17T04:30:39.784Z,14.30
2018-03-17T04:33:08.076Z,13.63
2018-03-17T04:35:35.621Z,12.27
2018-03-17T04:38:03.141Z,15.00
2018-03-17T04:40:30.684Z,12.53
2018-03-17T04:42:58.978Z,12.80
2018-03-17T04:45:26.522Z,11.67
2018-03-17T04:47:54.045Z,11.73
2018-03-17T04:50:21.588Z,9.73
2018-03-17T04:52:49.116Z,10.33
2018-03-17T04:55:16.657Z,9.40
2018-03-17T04:57:44.180Z,9.87
2018-03-17T05:00:11.720Z,10.40
2018-03-17T05:02:39.240Z,10.67
2018-03-17T05:05:06.785Z,9.50
2018-03-17T05:07:34.336Z,10.50
2018-03-17T05:10:02.620Z,11.83
2018-03-17T05:12:30.164Z,13.60
2018-03-17T05:14:58.452Z,12.43
2018-03-17T05:17:26.765Z,14.00
2018-03-17T05:19:54.281Z,13.60
2018-03-17T05:22:22.581Z,13.77
2018-03-17T05:24:50.103Z,16.23
2018-03-17T05:27:17.643Z,17.23
2018-03-17T05:29:45.216Z,15.43
2018-03-17T05:32:12.753Z,17.50
2018-03-17T05:34:40.268Z,17.80
2018-03-17T05:37:07.804Z,17.90
2018-03-17T05:39:36.091Z,18.67
2018-03-17T05:42:04.397Z,17.90
2018-03-17T05:44:32.690Z,18.70
2018-03-17T05:47:00.245Z,18.23
2018-03-17T05:49:27.768Z,18.03
2018-03-17T05:51:55.306Z,20.73
2018-03-17T05:54:23.588Z,19.43
2018-03-17T05:56:51.901Z,19.83
2018-03-17T05:59:19.436Z,20.83
2018-03-17T06:01:46.976Z,19.80
2018-03-17T06:04:15.285Z,20.13
2018-03-17T06:06:42.808Z,20.63
2018-03-17T06:09:11.098Z,19.57
2018-03-17T06:11:39.408Z,19.10
2018-03-17T06:14:06.945Z,20.10
2018-03-17T06:16:34.488Z,20.13
2018-03-17T06:19:02.772Z,18.73
2018-03-17T06:21:30.319Z,20.60
2018-03-17T06:23:58.607Z,20.23
2018-03-17T06:26:26.155Z,19.40
2018-03-17T06:28:54.446Z,20.27
2018-03-17T06:31:22.031Z,19.70
2018-03-17T06:33:49.554Z,19.70
2018-03-17T06:36:17.092Z,20.13
2018-03-17T06:38:45.378Z,21.13
2018-03-17T06:41:13.680Z,20.80
2018-03-17T06:43:41.208Z,19.30
2018-03-17T06:46:09.509Z,19.43
2018-03-17T06:48:37.033Z,20.03
2018-03-17T06:51:05.345Z,19.30
2018-03-17T06:53:32.865Z,19.10
2018-03-17T06:56:00.408Z,17.03
2018-03-17T06:58:27.940Z,17.43
2018-03-17T07:00:55.476Z,16.03
2018-03-17T07:03:22.997Z,15.27
2018-03-17T07:05:50.532Z,16.83
2018-03-17T07:08:18.049Z,17.63
2018-03-17T07:10:45.568Z,14.60
2018-03-17T07:13:13.110Z,15.60
2018-03-17T07:15:40.638Z,15.43
2018-03-17T07:18:08.177Z,15.47
2018-03-17T07:20:35.702Z,14.50
2018-03-17T07:23:03.249Z,15.43
2018-03-17T07:25:30.766Z,13.57
2018-03-17T07:27:58.304Z,15.40
2018-03-17T07:30:25.826Z,15.10
2018-03-17T07:32:53.372Z,15.00
2018-03-17T07:35:20.894Z,14.07
2018-03-17T07:37:48.433Z,15.53
2018-03-17T07:40:16.716Z,15.67
2018-03-17T07:42:44.261Z,15.33
2018-03-17T07:45:12.557Z,16.43
2018-03-17T07:47:40.097Z,14.70
2018-03-17T07:50:08.391Z,14.63
2018-03-17T07:52:35.934Z,14.67
2018-03-17T07:55:04.219Z,15.10
2018-03-17T07:57:31.772Z,14.03
2018-03-17T07:59:59.293Z,16.33
2018-03-17T08:02:26.849Z,13.67
2018-03-17T08:04:54.370Z,13.20
2018-03-17T08:07:21.912Z,13.10
2018-03-17T08:09:49.433Z,14.63
2018-03-17T08:12:16.979Z,13.30
2018-03-17T08:14:44.501Z,12.73
2018-03-17T08:17:12.048Z,12.97
2018-03-17T08:19:39.568Z,12.37
2018-03-17T08:22:07.117Z,14.63
2018-03-17T08:24:34.642Z,12.80
2018-03-17T08:27:02.196Z,13.40
2018-03-17T08:29:29.724Z,13.37
2018-03-17T08:31:58.034Z,13.63
2018-03-17T08:34:25.560Z,13.43
2018-03-17T08:36:53.109Z,11.73
2018-03-17T08:39:21.440Z,13.27
2018-03-17T08:41:48.955Z,12.67
2018-03-17T08:44:16.486Z,12.70
2018-03-17T08:46:44.039Z,11.57
2018-03-17T08:49:11.560Z,12.83
2018-03-17T08:51:39.873Z,11.83
2018-03-17T08:54:07.773Z,13.63
2018-03-17T08:56:35.317Z,13.40
2018-03-17T08:59:03.613Z,12.90
2018-03-17T09:01:31.152Z,12.53
2018-03-17T09:03:59.450Z,11.73
2018-03-17T09:06:27.017Z,12.10
2018-03-17T09:08:54.632Z,12.40
2018-03-17T09:11:22.920Z,13.03
2018-03-17T09:13:51.341Z,11.17
2018-03-17T09:16:19.124Z,13.07
2018-03-17T09:18:46.675Z,13.03
2018-03-17T09:21:14.204Z,12.07
2018-03-17T09:23:41.749Z,11.40
2018-03-17T09:26:10.037Z,12.33
2018-03-17T09:28:37.623Z,12.73
2018-03-17T09:31:05.171Z,11.50
2018-03-17T09:33:32.833Z,11.90
2018-03-17T09:36:00.499Z,13.57
2018-03-17T09:38:28.108Z,12.83
2018-03-17T09:40:55.634Z,11.03
2018-03-17T09:43:23.171Z,13.10
2018-03-17T09:45:50.688Z,12.77
2018-03-17T09:48:19.049Z,12.67
2018-03-17T09:50:46.566Z,12.77
2018-03-17T09:53:14.114Z,12.40
2018-03-17T09:55:41.634Z,12.40
2018-03-17T09:58:10.091Z,12.10
2018-03-17T10:00:37.632Z,9.03
2018-03-17T10:03:06.106Z,11.80
2018-03-17T10:05:33.642Z,12.53
2018-03-17T10:08:01.176Z,12.23
2018-03-17T10:10:29.463Z,10.57
2018-03-17T10:12:57.037Z,11.07
2018-03-17T10:15:24.565Z,11.87
2018-03-17T10:17:52.880Z,10.63
2018-03-17T10:20:20.403Z,11.77
2018-03-17T10:22:48.719Z,11.70
2018-03-17T10:25:16.257Z,12.10
2018-03-17T10:27:43.813Z,13.37
2018-03-17T10:30:11.336Z,13.00
2018-03-17T10:32:38.877Z,12.40
2018-03-17T10:35:06.405Z,12.00
2018-03-17T10:37:33.943Z,11.40
2018-03-17T10:40:01.456Z,16.30
2018-03-17T10:42:29.000Z,15.00
2018-03-17T10:44:56.521Z,13.10
2018-03-17T10:47:24.063Z,12.17
2018-03-17T10:49:52.352Z,12.70
2018-03-17T10:52:19.897Z,12.50
2018-03-17T10:54:48.193Z,11.73
2018-03-17T10:57:15.740Z,11.57
2018-03-17T10:59:43.257Z,9.90
2018-03-17T11:02:10.785Z,11.77
2018-03-17T11:04:38.327Z,11.40
2018-03-17T11:07:05.858Z,11.17
2018-03-17T11:09:34.178Z,11.70
2018-03-17T11:12:01.700Z,11.67
2018-03-17T11:14:30.056Z,10.37
2018-03-17T11:16:57.561Z,11.17
2018-03-17T11:19:25.113Z,11.80
2018-03-17T11:21:52.632Z,12.27
2018-03-17T11:24:20.178Z,12.30
2018-03-17T11:26:47.698Z,11.77
2018-03-17T11:29:15.253Z,15.47
2018-03-17T11:31:42.786Z,18.00
2018-03-17T11:34:11.099Z,11.83
2018-03-17T11:36:38.616Z,10.40
2018-03-17T11:39:06.935Z,12.07
2018-03-17T11:41:34.461Z,11.30
2018-03-17T11:44:02.008Z,13.53
2018-03-17T11:46:30.298Z,10.90
2018-03-17T11:48:57.841Z,10.57
2018-03-17T11:51:26.136Z,12.40
2018-03-17T11:53:53.678Z,40.77
2018-03-17T11:56:21.975Z,14.23
2018-03-17T11:58:49.509Z,13.27
2018-03-17T12:01:17.800Z,10.27
2018-03-17T12:03:45.341Z,16.43
2018-03-17T12:06:13.628Z,12.20
2018-03-17T12:08:41.181Z,24.33
2018-03-17T12:11:09.472Z,13.30
2018-03-17T12:13:37.012Z,12.50
2018-03-17T12:16:05.305Z,10.73
2018-03-17T12:18:32.849Z,10.57
2018-03-17T12:21:01.137Z,12.37
2018-03-17T12:23:28.685Z,9.70
2018-03-17T12:25:56.995Z,10.30
2018-03-17T12:28:24.570Z,10.73
2018-03-17T12:30:52.091Z,8.73
2018-03-17T12:33:19.796Z,10.07
2018-03-17T12:35:47.509Z,11.67
2018-03-17T12:38:15.944Z,9.20
2018-03-17T12:40:43.514Z,10.60
2018-03-17T12:43:11.125Z,11.13
2018-03-17T12:45:40.184Z,10.13
2018-03-17T12:48:08.497Z,10.33
2018-03-17T12:50:36.228Z,9.77
2018-03-17T12:53:04.618Z,9.90
2018-03-17T12:55:32.178Z,9.53
2018-03-17T12:58:00.733Z,9.47
2018-03-17T13:00:29.037Z,10.40
2018-03-17T13:02:56.614Z,10.73
2018-03-17T13:05:25.016Z,8.63
2018-03-17T13:07:52.629Z,11.03
2018-03-17T13:10:20.193Z,10.47
2018-03-17T13:12:47.937Z,9.37
2018-03-17T13:15:16.360Z,8.60
2018-03-17T13:17:43.917Z,9.60
2018-03-17T13:20:11.504Z,9.43
2018-03-17T13:22:50.841Z,10.47
2018-03-17T13:25:18.381Z,10.47
2018-03-17T13:27:57.646Z,10.63
2018-03-17T13:30:25.190Z,10.37
2018-03-17T13:32:59.393Z,10.47
2018-03-17T13:35:38.834Z,8.53
2018-03-17T13:38:06.353Z,9.20
2018-03-17T13:40:43.229Z,10.30
2018-03-17T13:43:10.753Z,10.37
2018-03-17T13:45:38.470Z,10.97
2018-03-17T13:48:06.013Z,11.73
2018-03-17T13:50:33.551Z,11.00
2018-03-17T13:53:01.099Z,8.93
2018-03-17T13:55:29.432Z,11.10
2018-03-17T13:57:57.377Z,11.30
2018-03-17T14:00:25.150Z,9.37
2018-03-17T14:02:52.864Z,11.07
2018-03-17T14:05:20.413Z,10.97
2018-03-17T14:07:47.924Z,8.37
2018-03-17T14:10:15.757Z,11.30
2018-03-17T14:12:44.424Z,10.33
2018-03-17T14:15:11.967Z,10.37
2018-03-17T14:17:39.498Z,11.60
2018-03-17T14:20:07.422Z,12.27
2018-03-17T14:22:35.720Z,12.63
2018-03-17T14:25:03.261Z,11.47
2018-03-17T14:27:31.562Z,11.33
2018-03-17T14:29:59.162Z,10.37
2018-03-17T14:32:26.768Z,12.17
2018-03-17T14:34:54.314Z,10.33
2018-03-17T14:37:22.642Z,12.17
2018-03-17T14:39:50.199Z,8.10
2018-03-17T14:42:17.911Z,12.83
2018-03-17T14:44:46.223Z,10.77
2018-03-17T14:47:13.753Z,11.63
2018-03-17T14:49:42.371Z,11.30
2018-03-17T14:52:09.920Z,13.33
2018-03-17T14:54:37.869Z,12.33
2018-03-17T14:57:05.810Z,13.10
2018-03-17T14:59:34.902Z,10.03
2018-03-17T15:02:02.457Z,12.00
2018-03-17T15:04:30.126Z,10.10
2018-03-17T15:06:58.509Z,9.27
2018-03-17T15:09:26.167Z,9.73
2018-03-17T15:11:55.155Z,11.47
2018-03-17T15:14:22.809Z,12.63
2018-03-17T15:16:50.748Z,10.30
2018-03-17T15:19:18.281Z,13.50
2018-03-17T15:21:45.801Z,11.40
2018-03-17T15:24:13.657Z,12.20
2018-03-17T15:26:41.201Z,13.13
2018-03-17T15:29:08.721Z,10.73
2018-03-17T15:31:36.417Z,12.47
2018-03-17T15:34:04.277Z,11.77
2018-03-17T15:36:31.820Z,12.50
2018-03-17T15:38:59.346Z,13.33
2018-03-17T15:41:26.877Z,13.13
2018-03-17T15:43:54.396Z,12.40
2018-03-17T15:46:21.966Z,13.80
2018-03-17T15:48:49.484Z,11.67
2018-03-17T15:51:17.224Z,12.43
2018-03-17T15:53:45.702Z,12.63
2018-03-17T15:56:13.362Z,12.30
2018-03-17T15:58:40.884Z,14.10
2018-03-17T16:01:08.442Z,12.77
2018-03-17T16:03:35.961Z,12.00
2018-03-17T16:06:04.264Z,12.90
2018-03-17T16:08:31.784Z,10.47
2018-03-17T16:11:00.084Z,12.23
2018-03-17T16:13:27.604Z,13.67
2018-03-17T16:15:55.149Z,13.00
2018-03-17T16:18:22.661Z,12.87
2018-03-17T16:20:50.200Z,11.30
2018-03-17T16:23:18.485Z,10.07
2018-03-17T16:25:46.029Z,12.37
2018-03-17T16:28:14.324Z,13.20
2018-03-17T16:30:41.862Z,12.90
2018-03-17T16:33:10.159Z,10.00
2018-03-17T16:35:37.702Z,10.30
2018-03-17T16:38:05.985Z,12.07
2018-03-17T16:40:33.529Z,14.47
2018-03-17T16:43:01.809Z,12.90
2018-03-17T16:45:29.369Z,14.03
2018-03-17T16:47:57.664Z,10.67
2018-03-17T16:50:25.205Z,13.87
2018-03-17T16:52:53.511Z,10.70
2018-03-17T16:55:21.061Z,11.87
2018-03-17T16:57:48.584Z,11.40
2018-03-17T17:00:16.897Z,14.50
2018-03-17T17:02:44.693Z,9.03
2018-03-17T17:05:12.247Z,11.70
2018-03-17T17:07:39.851Z,12.60
2018-03-17T17:10:07.489Z,12.87
2018-03-17T17:12:35.357Z,14.47
2018-03-17T17:15:03.140Z,13.23
2018-03-17T17:17:31.504Z,9.90
2018-03-17T17:19:59.185Z,12.10
2018-03-17T17:22:27.940Z,11.73
2018-03-17T17:24:55.496Z,10.83
2018-03-17T17:27:23.273Z,10.73
2018-03-17T17:29:51.710Z,8.47
2018-03-17T17:32:19.377Z,13.77
2018-03-17T17:34:47.189Z,13.10
2018-03-17T17:37:15.992Z,13.03
2018-03-17T17:39:44.280Z,14.37
2018-03-17T17:42:12.048Z,11.73
2018-03-17T17:44:39.566Z,13.07
2018-03-17T17:47:07.113Z,9.03
2018-03-17T17:49:34.643Z,14.00
2018-03-17T17:52:02.308Z,10.60
2018-03-17T17:54:29.838Z,12.57
2018-03-17T17:56:57.395Z,13.83
2018-03-17T17:59:24.972Z,15.20
2018-03-17T18:01:52.516Z,18.93
2018-03-17T18:04:20.116Z,17.20
2018-03-17T18:06:47.657Z,11.87
2018-03-17T18:09:15.200Z,11.00
2018-03-17T18:11:42.758Z,14.37
2018-03-17T18:14:10.344Z,11.00
2018-03-17T18:16:37.954Z,12.60
2018-03-17T18:19:05.620Z,14.23
2018-03-17T18:21:33.145Z,10.20
2018-03-17T18:24:01.531Z,13.47
2018-03-17T18:26:29.840Z,13.87
2018-03-17T18:28:57.404Z,12.00
2018-03-17T18:31:24.946Z,15.77
2018-03-17T18:33:53.248Z,17.73
2018-03-17T18:36:21.040Z,19.37
2018-03-17T18:38:48.583Z,11.53
2018-03-17T18:41:16.192Z,14.40
2018-03-17T18:43:44.634Z,15.80
2018-03-17T18:46:12.173Z,14.47
2018-03-17T18:48:39.721Z,15.87
2018-03-17T18:51:07.248Z,18.40
2018-03-17T18:53:35.595Z,13.43
2018-03-17T18:56:03.131Z,10.63
2018-03-17T18:58:30.693Z,11.27
2018-03-17T19:00:58.224Z,11.33
2018-03-17T19:03:25.765Z,14.00
2018-03-17T19:05:53.293Z,13.70
2018-03-17T19:08:20.842Z,13.63
2018-03-17T19:10:48.360Z,17.90
2018-03-17T19:13:15.917Z,44.17
2018-03-17T19:15:43.500Z,14.87
2018-03-17T19:18:11.021Z,11.53
2018-03-17T19:20:38.550Z,19.23
2018-03-17T19:23:06.849Z,15.73
2018-03-17T19:25:34.395Z,30.77
2018-03-17T19:28:02.694Z,43.10
2018-03-17T19:30:30.241Z,64.93
2018-03-17T19:32:58.524Z,41.80
2018-03-17T19:35:26.070Z,24.20
2018-03-17T19:37:53.589Z,13.37
2018-03-17T19:40:21.169Z,12.57
2018-03-17T19:42:49.544Z,15.03
2018-03-17T19:45:17.084Z,17.37
2018-03-17T19:47:44.608Z,16.73
2018-03-17T19:50:12.163Z,13.20
2018-03-17T19:52:39.687Z,19.97
2018-03-17T19:55:08.005Z,15.60
2018-03-17T19:57:35.533Z,20.13
2018-03-17T20:00:03.930Z,19.60
2018-03-17T20:02:31.454Z,28.10
2018-03-17T20:04:58.998Z,18.53
2018-03-17T20:07:26.525Z,23.40
2018-03-17T20:09:54.086Z,35.20
2018-03-17T20:12:21.628Z,26.43
2018-03-17T20:14:49.185Z,23.33
2018-03-17T20:17:16.720Z,24.37
2018-03-17T20:19:45.028Z,25.30
2018-03-17T20:22:12.557Z,44.10
2018-03-17T20:24:40.864Z,23.33
2018-03-17T20:27:08.397Z,42.20
2018-03-17T20:29:35.940Z,25.57
2018-03-17T20:32:04.237Z,25.00
2018-03-17T20:34:31.789Z,21.87
2018-03-17T20:36:59.332Z,17.70
2018-03-17T20:39:28.757Z,16.40
2018-03-17T20:41:56.291Z,17.50
2018-03-17T20:44:24.588Z,21.00
2018-03-17T20:46:52.136Z,13.50
2018-03-17T20:49:20.436Z,17.70
2018-03-17T20:51:48.804Z,15.60
2018-03-17T20:54:16.366Z,15.43
2018-03-17T20:56:43.888Z,14.37
2018-03-17T20:59:11.430Z,22.87
2018-03-17T21:01:38.951Z,17.10
2018-03-17T21:04:06.513Z,18.07
2018-03-17T21:06:34.034Z,18.83
2018-03-17T21:09:02.343Z,20.57
2018-03-17T21:11:29.864Z,12.13
2018-03-17T21:13:58.173Z,14.70
2018-03-17T21:16:25.698Z,13.10
2018-03-17T21:18:54.018Z,15.47
2018-03-17T21:21:21.554Z,14.53
2018-03-17T21:23:49.076Z,14.33
2018-03-17T21:26:16.618Z,12.53
2018-03-17T21:28:44.137Z,10.87
2018-03-17T21:31:11.681Z,15.97
2018-03-17T21:33:39.214Z,17.43
2018-03-17T21:36:06.769Z,10.20
2018-03-17T21:38:34.288Z,16.90
2018-03-17T21:41:01.849Z,12.87
2018-03-17T21:43:29.373Z,15.40
2018-03-17T21:45:56.937Z,16.17
2018-03-17T21:48:24.461Z,9.53
2018-03-17T21:50:52.000Z,12.20
2018-03-17T21:53:19.520Z,16.50
2018-03-17T21:55:47.068Z,16.57
2018-03-17T21:58:14.586Z,15.00
2018-03-17T22:00:42.175Z,15.90
2018-03-17T22:03:09.666Z,14.20
2018-03-17T22:05:37.210Z,16.03
2018-03-17T22:08:04.740Z,17.60
2018-03-17T22:10:33.052Z,15.43
2018-03-17T22:13:00.580Z,10.53
2018-03-17T22:15:28.123Z,12.70
2018-03-17T22:17:56.412Z,15.57
2018-03-17T22:20:24.728Z,16.73
2018-03-17T22:22:52.255Z,15.93
2018-03-17T22:25:19.803Z,15.03
2018-03-17T22:27:48.100Z,10.33
2018-03-17T22:30:15.645Z,17.17
2018-03-17T22:32:43.163Z,16.40
2018-03-17T22:35:10.701Z,17.50
2018-03-17T22:37:38.277Z,12.70
2018-03-17T22:40:05.809Z,15.60
2018-03-17T22:42:33.337Z,16.17
2018-03-17T22:45:01.644Z,14.80
2018-03-17T22:47:29.164Z,13.63
2018-03-17T22:49:57.473Z,13.23
2018-03-17T22:52:25.004Z,14.33
2018-03-17T22:54:52.544Z,15.53
2018-03-17T22:57:20.848Z,15.20
2018-03-17T22:59:48.388Z,16.93
2018-03-17T23:02:15.925Z,14.43
2018-03-17T23:04:44.232Z,16.17
2018-03-17T23:07:12.512Z,14.30
2018-03-17T23:09:40.100Z,16.47
2018-03-17T23:12:07.599Z,14.23
2018-03-17T23:14:35.141Z,16.23
2018-03-17T23:17:02.660Z,13.80
2018-03-17T23:19:30.220Z,10.40
2018-03-17T23:21:57.765Z,13.77
2018-03-17T23:24:25.299Z,15.87
2018-03-17T23:26:53.612Z,15.40
2018-03-17T23:29:21.133Z,8.27
2018-03-17T23:31:49.436Z,13.83
2018-03-17T23:34:16.964Z,14.63
2018-03-17T23:36:44.505Z,12.63
2018-03-17T23:39:12.032Z,14.60
2018-03-17T23:41:39.580Z,7.07
2018-03-17T23:44:07.977Z,14.90
2018-03-17T23:46:35.525Z,13.50
2018-03-17T23:49:03.820Z,14.13
2018-03-17T23:51:31.360Z,14.53
2018-03-17T23:53:58.901Z,16.80
2018-03-17T23:56:26.456Z,13.60
2018-03-17T23:58:54.679Z,15.53
